Dades meteomassalio
Diari Summary for Juny 12, 2017 Units:  Metric    English   Both
« Previous Day
Next Day »
Diari Semanal Mensual Anual Personalitzat
  Maxima: Minima: Mijana:
Temperatura: -17.8 °C -7.2 °C -3.1 °C
Rosada: -17.8 °C -12.2 °C -10.1 °C
Humitat: Humidity % 26 % 49 %
Velocitat del vent: 0 km/h 0 km/h 10.5 km/h
Racha vent: 0 km/h - -
Vent:- - South
Pressio: 0 hPa 34279.9 hPa -
Pluja: 0 mm    
Historical Graphs
 
 
Tabular Data for Juny 12, 2017
Time Temperature Dew Point Pressure Wind Wind Speed Wind Gust Humidity Rainfall Rate (Hourly) solar Conditions
-17.8 °C -17.8 °C 0 hPa Calm     Humidity % 0 mm SolarRadiationWatts/m^2 W/m2 Conditions
00:03 -3.7 °C -10.7 °C 34361.1 hPa Calm     46 % 0 mm 0.0 W/m2 CLR
00:08 -3.8 °C -10.7 °C 34361.1 hPa Calm     46 % 0 mm 0.0 W/m2 CLR
00:13 -3.8 °C -10.7 °C 34361.1 hPa Calm     46 % 0 mm 0.0 W/m2 CLR
00:18 -3.9 °C -10.7 °C 34361.1 hPa Calm     47 % 0 mm 0.0 W/m2 CLR
00:23 -4.1 °C -10.6 °C 34361.1 hPa Calm     48 % 0 mm 0.0 W/m2 CLR
00:28 -4.2 °C -10.5 °C 34371.3 hPa Calm     49 % 0 mm 0.0 W/m2 CLR
00:33 -4.2 °C -10.6 °C 34371.3 hPa Calm     49 % 0 mm 0.0 W/m2 CLR
00:38 -4.3 °C -10.6 °C 34371.3 hPa Calm     49 % 0 mm 0.0 W/m2 CLR
00:43 -4.3 °C -10.7 °C 34371.3 hPa Calm     49 % 0 mm 0.0 W/m2 CLR
00:48 -4.4 °C -10.6 °C 34371.3 hPa Calm     50 % 0 mm 0.0 W/m2 CLR
00:53 -4.6 °C -10.5 °C 34371.3 hPa Calm     51 % 0 mm 0.0 W/m2 CLR
00:58 -4.6 °C -10.4 °C 34371.3 hPa Calm     52 % 0 mm 0.0 W/m2 CLR
01:03 -4.7 °C -10.5 °C 34371.3 hPa Calm     52 % 0 mm 0.0 W/m2 CLR
01:08 -4.8 °C -10.4 °C 34371.3 hPa Calm     53 % 0 mm 0.0 W/m2 CLR
01:13 -4.8 °C -10.4 °C 34371.3 hPa Calm     53 % 0 mm 0.0 W/m2 CLR
01:18 -4.9 °C -10.4 °C 34371.3 hPa Calm     54 % 0 mm 0.0 W/m2 CLR
01:23 -5.1 °C -10.5 °C 34371.3 hPa Calm     54 % 0 mm 0.0 W/m2 CLR
01:28 -5.1 °C -10.5 °C 34371.3 hPa Calm     54 % 0 mm 0.0 W/m2 CLR
01:33 -5.1 °C -10.4 °C 34371.3 hPa Calm     55 % 0 mm 0.0 W/m2 CLR
01:38 -5.2 °C -10.4 °C 34384.8 hPa Calm     55 % 0 mm 0.0 W/m2 CLR
01:43 -5.3 °C -10.4 °C 34384.8 hPa Calm     56 % 0 mm 0.0 W/m2 CLR
01:48 -5.4 °C -10.3 °C 34384.8 hPa Calm     57 % 0 mm 0.0 W/m2 CLR
01:53 -5.4 °C -10.4 °C 34384.8 hPa Calm     57 % 0 mm 0.0 W/m2 CLR
01:58 -5.5 °C -10.2 °C 34384.8 hPa Calm     59 % 0 mm 0.0 W/m2 CLR
02:03 -5.6 °C -10.2 °C 34384.8 hPa Calm     59 % 0 mm 0.0 W/m2 CLR
02:08 -5.7 °C -10.2 °C 34384.8 hPa Calm     60 % 0 mm 0.0 W/m2 CLR
02:13 -5.8 °C -10.1 °C 34384.8 hPa Calm     61 % 0 mm 0.0 W/m2 CLR
02:18 -5.9 °C -10.2 °C 34384.8 hPa Calm     61 % 0 mm 0.0 W/m2 CLR
02:23 -6 °C -10.2 °C 34384.8 hPa Calm     62 % 0 mm 0.0 W/m2 CLR
02:28 -6.1 °C -10.2 °C 34384.8 hPa Calm     63 % 0 mm 0.0 W/m2 CLR
02:33 -6.2 °C -10.2 °C 34384.8 hPa Calm     64 % 0 mm 0.0 W/m2 CLR
02:38 -6.3 °C -10.1 °C 34384.8 hPa Calm     65 % 0 mm 0.0 W/m2 CLR
02:44 -6.5 °C -10 °C 34384.8 hPa Calm     67 % 0 mm 0.0 W/m2 CLR
02:49 -6.7 °C -10.1 °C 34384.8 hPa Calm     68 % 0 mm 0.0 W/m2 CLR
02:54 -6.8 °C -10.1 °C 34384.8 hPa Calm     68 % 0 mm 0.0 W/m2 CLR
02:59 -6.8 °C -10.2 °C 34384.8 hPa Calm     68 % 0 mm 0.0 W/m2 CLR
03:04 -6.8 °C -10.2 °C 34395 hPa Calm     68 % 0 mm 0.0 W/m2 CLR
03:09 -6.9 °C -10.2 °C 34395 hPa Calm     69 % 0 mm 0.0 W/m2 CLR
03:14 -6.9 °C -10.2 °C 34395 hPa Calm     69 % 0 mm 0.0 W/m2 CLR
03:19 -7.1 °C -10.2 °C 34395 hPa Calm     70 % 0 mm 0.0 W/m2 CLR
03:24 -7.1 °C -10.2 °C 34395 hPa Calm     70 % 0 mm 0.0 W/m2 CLR
03:29 -7.2 °C -10.4 °C 34395 hPa Calm     69 % 0 mm 0.0 W/m2 CLR
03:34 -7.2 °C -10.5 °C 34395 hPa SW 11.9 km/h 11.9 km/h 68 % 0 mm 0.0 W/m2 CLR
03:39 -7.1 °C -10.5 °C 34395 hPa Calm     68 % 0 mm 0.0 W/m2 CLR
03:44 -7.1 °C -10.5 °C 34395 hPa Calm     67 % 0 mm 0.0 W/m2 CLR
03:49 -7 °C -10.5 °C 34395 hPa Calm     67 % 0 mm 0.0 W/m2 CLR
03:54 -7 °C -10.4 °C 34405.1 hPa Calm     67 % 0 mm 0.0 W/m2 CLR
03:59 -6.9 °C -10.4 °C 34395 hPa Calm     67 % 0 mm 0.0 W/m2 CLR
04:04 -6.9 °C -10.4 °C 34395 hPa Calm     67 % 0 mm 0.0 W/m2 CLR
04:09 -7 °C -10.5 °C 34405.1 hPa Calm     67 % 0 mm 0.0 W/m2 CLR
04:14 -7 °C -10.3 °C 34395 hPa Calm     68 % 0 mm 0.0 W/m2 CLR
04:19 -6.8 °C -10.2 °C 34405.1 hPa WSW 17.9 km/h 17.9 km/h 68 % 0 mm 0.0 W/m2 CLR
04:24 -6.6 °C -10.2 °C 34405.1 hPa WSW 17.9 km/h 17.9 km/h 66 % 0 mm 0.0 W/m2 CLR
04:29 -6.4 °C -10.2 °C 34405.1 hPa WSW 9 km/h 9 km/h 65 % 0 mm 0.0 W/m2 CLR
04:34 -6.3 °C -10.2 °C 34405.1 hPa Calm     64 % 0 mm 0.0 W/m2 CLR
04:39 -6.4 °C -10.3 °C 34405.1 hPa Calm     64 % 0 mm 0.0 W/m2 CLR
04:49 -6.6 °C -10.2 °C 34418.7 hPa Calm   0.3 km/h 66 % 0 mm 0.0 W/m2 CLR
04:54 -6.7 °C -10.2 °C 34418.7 hPa SW 9 km/h 9 km/h 67 % 0 mm 0.0 W/m2 CLR
04:59 -6.7 °C -10.1 °C 34418.7 hPa Calm     68 % 0 mm 0.0 W/m2 CLR
05:04 -6.8 °C -10.2 °C 34418.7 hPa Calm     68 % 0 mm 0.0 W/m2 CLR
05:09 -6.8 °C -10.1 °C 34418.7 hPa Calm     69 % 0 mm 0.0 W/m2 CLR
05:14 -6.8 °C -9.9 °C 34418.7 hPa Calm     70 % 0 mm 0.0 W/m2 CLR
05:19 -6.8 °C -9.9 °C 34418.7 hPa Calm     70 % 0 mm 0.0 W/m2 CLR
05:24 -6.8 °C -9.8 °C 34418.7 hPa Calm     71 % 0 mm 0.0 W/m2 CLR
05:29 -6.8 °C -9.8 °C 34418.7 hPa Calm     71 % 0 mm 0.0 W/m2 CLR
05:34 -6.8 °C -9.8 °C 34418.7 hPa Calm     71 % 0 mm 0.0 W/m2 CLR
05:39 -6.9 °C -9.9 °C 34418.7 hPa Calm     71 % 0 mm 0.0 W/m2 CLR
05:44 -6.9 °C -9.8 °C 34418.7 hPa Calm     72 % 0 mm 0.0 W/m2 CLR
05:49 -6.9 °C -9.6 °C 34428.8 hPa WNW 3.1 km/h   74 % 0 mm 0.0 W/m2 CLR
05:54 -6.9 °C -9.6 °C 34428.8 hPa WNW 9 km/h 9 km/h 74 % 0 mm 0.0 W/m2 CLR
05:59 -6.8 °C -9.6 °C 34428.8 hPa Calm     73 % 0 mm 0.0 W/m2 CLR
06:04 -6.8 °C -9.5 °C 34428.8 hPa WSW 3.1 km/h   74 % 0 mm 0.0 W/m2 CLR
06:09 -6.8 °C -9.5 °C 34428.8 hPa Calm     74 % 0 mm 0.0 W/m2 CLR
06:14 -6.8 °C -9.5 °C 34428.8 hPa Calm     74 % 0 mm 0.0 W/m2 CLR
06:19 -6.9 °C -9.4 °C 34428.8 hPa Calm     75 % 0 mm 0.0 W/m2 OVC
06:25 -6.9 °C -9.5 °C 34428.8 hPa Calm     75 % 0 mm 0.0 W/m2 OVC
06:30 -7 °C -9.6 °C 34442.4 hPa Calm     75 % 0 mm 5.0 W/m2 OVC
06:35 -7.1 °C -9.4 °C 34442.4 hPa Calm     76 % 0 mm 7.0 W/m2 BKN
06:40 -7.1 °C -9.4 °C 34442.4 hPa Calm     76 % 0 mm 9.0 W/m2 BKN
06:45 -7.1 °C -9.5 °C 34442.4 hPa Calm     76 % 0 mm 12.0 W/m2 BKN
06:50 -7.1 °C -9.6 °C 34442.4 hPa Calm     76 % 0 mm 16.0 W/m2 BKN
06:55 -7.1 °C -9.6 °C 34442.4 hPa Calm     76 % 0 mm 18.0 W/m2 BKN
07:00 -7.2 °C -9.4 °C 34452.6 hPa Calm     77 % 0 mm 21.0 W/m2 BKN
07:05 -7.2 °C -9.4 °C 34442.4 hPa Calm     77 % 0 mm 28.0 W/m2 BKN
07:10 -7.1 °C -9.3 °C 34452.6 hPa Calm     78 % 0 mm 37.0 W/m2 BKN
07:15 -7.1 °C -9.3 °C 34452.6 hPa Calm     77 % 0 mm 46.0 W/m2 SCT
07:20 -7.1 °C -9.3 °C 34442.4 hPa Calm     77 % 0 mm 54.0 W/m2 SCT
07:25 -6.9 °C -9.3 °C 34442.4 hPa Calm     77 % 0 mm 65.0 W/m2 SCT
07:30 -6.8 °C -9.3 °C 34452.6 hPa Calm     76 % 0 mm 76.0 W/m2 SCT
07:35 -6.8 °C -9.2 °C 34452.6 hPa Calm     76 % 0 mm 91.0 W/m2 FEW
07:40 -6.7 °C -9.2 °C 34452.6 hPa Calm     75 % 0 mm 104.0 W/m2 CLR
07:45 -6.6 °C -9.1 °C 34452.6 hPa Calm     75 % 0 mm 118.0 W/m2 CLR
07:50 -6.4 °C -9.1 °C 34452.6 hPa Calm     74 % 0 mm 135.0 W/m2 CLR
07:55 -6.2 °C -8.9 °C 34452.6 hPa Calm     74 % 0 mm 149.0 W/m2 CLR
08:00 -6.1 °C -8.9 °C 34452.6 hPa Calm     73 % 0 mm 165.0 W/m2 CLR
08:05 -6 °C -9 °C 34452.6 hPa NNW 15 km/h 15 km/h 71 % 0 mm 181.0 W/m2 CLR
08:10 -5.9 °C -9 °C 34452.6 hPa NNW 12.9 km/h 12.9 km/h 71 % 0 mm 197.0 W/m2 CLR
08:15 -5.9 °C -8.9 °C 34452.6 hPa WNW 23.8 km/h 23.8 km/h 71 % 0 mm 216.0 W/m2 CLR
08:20 -5.9 °C -8.9 °C 34452.6 hPa NW 20.9 km/h 20.9 km/h 71 % 0 mm 230.0 W/m2 CLR
08:25 -5.8 °C -9 °C 34452.6 hPa NW 23.8 km/h 23.8 km/h 70 % 0 mm 244.0 W/m2 CLR
08:30 -5.8 °C -9 °C 34452.6 hPa NW 17.9 km/h 17.9 km/h 70 % 0 mm 260.0 W/m2 CLR
08:35 -5.7 °C -8.9 °C 34452.6 hPa West 20.9 km/h 20.9 km/h 70 % 0 mm 274.0 W/m2 CLR
08:40 -5.7 °C -9 °C 34452.6 hPa West 12.9 km/h 12.9 km/h 69 % 0 mm 290.0 W/m2 CLR
08:45 -5.6 °C -8.9 °C 34452.6 hPa NW 26.9 km/h 26.9 km/h 69 % 0 mm 306.0 W/m2 CLR
08:50 -5.6 °C -9.1 °C 34452.6 hPa WSW 23.8 km/h 23.8 km/h 68 % 0 mm 318.0 W/m2 CLR
08:55 -5.5 °C -8.8 °C 34452.6 hPa WNW 17.9 km/h 17.9 km/h 69 % 0 mm 336.0 W/m2 CLR
09:00 -5.4 °C -8.8 °C 34452.6 hPa WNW 23.8 km/h 23.8 km/h 68 % 0 mm 350.0 W/m2 CLR
09:05 -5.4 °C -8.9 °C 34452.6 hPa West 15 km/h 15 km/h 68 % 0 mm 364.0 W/m2 CLR
09:10 -5.4 °C -8.8 °C 34452.6 hPa NW 20.9 km/h 20.9 km/h 68 % 0 mm 380.0 W/m2 CLR
09:15 -5.3 °C -8.9 °C 34452.6 hPa NW 17.9 km/h 17.9 km/h 67 % 0 mm 396.0 W/m2 CLR
09:20 -5.3 °C -8.8 °C 34452.6 hPa NW 15 km/h 15 km/h 68 % 0 mm 413.0 W/m2 CLR
09:25 -5.2 °C -8.7 °C 34452.6 hPa NW 18.2 km/h 18.2 km/h 68 % 0 mm 427.0 W/m2 CLR
09:30 -5.1 °C -8.7 °C 34452.6 hPa NW 20.8 km/h 20.8 km/h 67 % 0 mm 441.0 W/m2 CLR
09:35 -5 °C -8.7 °C 34452.6 hPa NW 20.9 km/h 20.9 km/h 66 % 0 mm 455.0 W/m2 CLR
09:40 -4.9 °C -8.7 °C 34452.6 hPa NW 12.9 km/h 12.9 km/h 65 % 0 mm 473.0 W/m2 CLR
09:45 -4.8 °C -8.8 °C 34452.6 hPa West 15 km/h 15 km/h 64 % 0 mm 487.0 W/m2 CLR
09:50 -4.8 °C -8.8 °C 34452.6 hPa West 11.9 km/h 11.9 km/h 64 % 0 mm 499.0 W/m2 CLR
09:55 -4.7 °C -8.7 °C 34452.6 hPa NW 18.2 km/h 18.2 km/h 64 % 0 mm 515.0 W/m2 CLR
10:00 -4.6 °C -8.9 °C 34452.6 hPa WNW 20.9 km/h 20.9 km/h 62 % 0 mm 527.0 W/m2 CLR
10:05 -4.6 °C -8.8 °C 34452.6 hPa West 20.9 km/h 20.9 km/h 62 % 0 mm 543.0 W/m2 CLR
10:10 -4.5 °C -8.8 °C 34442.4 hPa West 17.9 km/h 17.9 km/h 62 % 0 mm 557.0 W/m2 CLR
10:15 -4.3 °C -8.6 °C 34442.4 hPa WNW 15 km/h 15 km/h 62 % 0 mm 571.0 W/m2 CLR
10:20 -4.2 °C -8.7 °C 34442.4 hPa Calm     61 % 0 mm 587.0 W/m2 CLR
10:26 -4 °C -8.4 °C 34442.4 hPa West 9 km/h 9 km/h 61 % 0 mm 605.0 W/m2 CLR
10:31 -3.9 °C -8.7 °C 34442.4 hPa West 9 km/h 9 km/h 59 % 0 mm 617.0 W/m2 CLR
10:32 -3.8 °C -8.6 °C 34442.4 hPa WNW 10.3 km/h 10.3 km/h 59 % 0 mm 619.0 W/m2 CLR
10:37 -3.8 °C -8.7 °C 34442.4 hPa WSW 15 km/h 15 km/h 58 % 0 mm 629.0 W/m2 CLR
10:42 -3.7 °C -8.6 °C 34442.4 hPa Calm     58 % 0 mm 647.0 W/m2 CLR
10:47 -3.7 °C -8.8 °C 34428.8 hPa WSW 23.8 km/h 23.8 km/h 57 % 0 mm 659.0 W/m2 CLR
10:52 -3.7 °C -8.7 °C 34442.4 hPa WNW 20.8 km/h 20.8 km/h 57 % 0 mm 670.0 W/m2 CLR
10:57 -3.6 °C -8.8 °C 34428.8 hPa West 2.6 km/h   56 % 0 mm 682.0 W/m2 CLR
11:02 -3.4 °C -8.7 °C 34428.8 hPa NNW 15 km/h 15 km/h 56 % 0 mm 694.0 W/m2 CLR
11:07 -3.4 °C -8.6 °C 34428.8 hPa West 15 km/h 15 km/h 56 % 0 mm 707.0 W/m2 CLR
11:12 -3.2 °C -8.5 °C 34428.8 hPa NW 20.9 km/h 20.9 km/h 56 % 0 mm 719.0 W/m2 CLR
11:17 -3 °C -8.8 °C 34428.8 hPa WNW 23.8 km/h 23.8 km/h 53 % 0 mm 728.0 W/m2 CLR
11:22 -3 °C -8.6 °C 34428.8 hPa NW 12.9 km/h 12.9 km/h 54 % 0 mm 740.0 W/m2 CLR
11:27 -2.9 °C -8.6 °C 34428.8 hPa North 17.9 km/h 17.9 km/h 54 % 0 mm 754.0 W/m2 CLR
11:32 -2.9 °C -8.5 °C 34428.8 hPa NW 20.9 km/h 20.9 km/h 54 % 0 mm 761.0 W/m2 CLR
11:37 -2.8 °C -8.6 °C 34428.8 hPa Calm     53 % 0 mm 770.0 W/m2 CLR
11:42 -2.7 °C -8.6 °C 34428.8 hPa NW 11.9 km/h 11.9 km/h 52 % 0 mm 780.0 W/m2 CLR
11:47 -2.6 °C -8.6 °C 34428.8 hPa North 6 km/h   52 % 0 mm 793.0 W/m2 CLR
11:52 -2.4 °C -8.6 °C 34428.8 hPa West 9 km/h   51 % 0 mm 802.0 W/m2 CLR
11:57 -2.4 °C -8.4 °C 34428.8 hPa Calm     52 % 0 mm 809.0 W/m2 CLR
12:02 -2.3 °C -8.4 °C 34428.8 hPa Calm     51 % 0 mm 819.0 W/m2 CLR
12:07 -2.1 °C -8.6 °C 34428.8 hPa West 3.1 km/h 3.1 km/h 49 % 0 mm 824.0 W/m2 CLR
12:12 -2.2 °C -8.5 °C 34428.8 hPa Calm   0.5 km/h 50 % 0 mm 833.0 W/m2 CLR
12:18 -2.1 °C -8.4 °C 34418.7 hPa Calm   4.2 km/h 50 % 0 mm 842.0 W/m2 CLR
12:23 -2.1 °C -8.6 °C 34418.7 hPa Calm     49 % 0 mm 849.0 W/m2 CLR
12:28 -1.9 °C -8.6 °C 34418.7 hPa Calm     48 % 0 mm 856.0 W/m2 CLR
12:33 -1.7 °C -8.4 °C 34418.7 hPa Calm     48 % 0 mm 863.0 W/m2 CLR
12:38 -1.7 °C -8.4 °C 34418.7 hPa Calm     48 % 0 mm 870.0 W/m2 CLR
12:43 -1.6 °C -8.5 °C 34418.7 hPa NE 15 km/h 15 km/h 47 % 0 mm 879.0 W/m2 CLR
12:48 -1.5 °C -8.4 °C 34418.7 hPa Calm     47 % 0 mm 884.0 W/m2 CLR
12:53 -1.5 °C -8.6 °C 34418.7 hPa Calm     46 % 0 mm 889.0 W/m2 CLR
12:58 -1.4 °C -8.4 °C 34418.7 hPa ENE 11.9 km/h 11.9 km/h 47 % 0 mm 891.0 W/m2 CLR
13:03 -1.3 °C -8.5 °C 34405.1 hPa North 9 km/h 9 km/h 46 % 0 mm 896.0 W/m2 CLR
13:08 -1.3 °C -8.7 °C 34405.1 hPa ENE 11.9 km/h 11.9 km/h 45 % 0 mm 905.0 W/m2 CLR
13:13 -1.1 °C -8.7 °C 34405.1 hPa Calm     44 % 0 mm 911.0 W/m2 CLR
13:18 -1.1 °C -9 °C 34405.1 hPa Calm     42 % 0 mm 909.0 W/m2 CLR
13:23 -0.9 °C -9.1 °C 34405.1 hPa Calm     41 % 0 mm 916.0 W/m2 CLR
13:28 -0.9 °C -9.1 °C 34405.1 hPa Calm     41 % 0 mm 918.0 W/m2 CLR
13:33 -0.7 °C -9.2 °C 34405.1 hPa Calm     40 % 0 mm 918.0 W/m2 CLR
13:38 -0.6 °C -9.1 °C 34395 hPa Calm     40 % 0 mm 923.0 W/m2 CLR
13:43 -0.6 °C -9.1 °C 34395 hPa NE 12.9 km/h 12.9 km/h 40 % 0 mm 923.0 W/m2 CLR
13:48 -0.6 °C -8.8 °C 34395 hPa NE 5.1 km/h 5.1 km/h 41 % 0 mm 923.0 W/m2 CLR
13:53 -0.3 °C -8.8 °C 34395 hPa NE 11.9 km/h 11.9 km/h 40 % 0 mm 925.0 W/m2 CLR
13:58 -0.3 °C -8.7 °C 34395 hPa ENE 11.9 km/h 11.9 km/h 40 % 0 mm 923.0 W/m2 CLR
14:03 -0.3 °C -8.9 °C 34384.8 hPa NE 9 km/h 9 km/h 39 % 0 mm 926.0 W/m2 CLR
14:08 -0.3 °C -8.5 °C 34384.8 hPa ENE 17.9 km/h 17.9 km/h 41 % 0 mm 923.0 W/m2 CLR
14:13 -0.2 °C -8.4 °C 34384.8 hPa ENE 2.6 km/h 2.6 km/h 41 % 0 mm 919.0 W/m2 CLR
14:18 -0.1 °C -8.8 °C 34371.3 hPa Calm     39 % 0 mm 919.0 W/m2 CLR
14:23 -0.1 °C -8.7 °C 34371.3 hPa NE 17.9 km/h 17.9 km/h 39 % 0 mm 921.0 W/m2 CLR
14:28 0.1 °C -8.9 °C 34371.3 hPa Calm     38 % 0 mm 919.0 W/m2 CLR
14:33 0.1 °C -8.8 °C 34371.3 hPa NE 18.2 km/h 18.2 km/h 38 % 0 mm 916.0 W/m2 CLR
14:38 0.1 °C -8.8 °C 34361.1 hPa Calm     38 % 0 mm 916.0 W/m2 CLR
14:43 0.3 °C -8.7 °C 34361.1 hPa WNW 9 km/h 9 km/h 38 % 0 mm 912.0 W/m2 CLR
14:48 0.4 °C -8.8 °C 34361.1 hPa ESE 15.6 km/h 15.6 km/h 37 % 0 mm 904.0 W/m2 CLR
14:53 0.4 °C -8.8 °C 34361.1 hPa ENE 29.8 km/h 29.8 km/h 37 % 0 mm 902.0 W/m2 CLR
14:58 0.5 °C -8.9 °C 34361.1 hPa NNE 20.9 km/h 20.9 km/h 36 % 0 mm 900.0 W/m2 CLR
15:03 0.6 °C -8.9 °C 34361.1 hPa SE 17.9 km/h 17.9 km/h 36 % 0 mm 895.0 W/m2 CLR
15:08 0.4 °C -8.6 °C 34347.6 hPa ESE 23.8 km/h 23.8 km/h 38 % 0 mm 891.0 W/m2 CLR
15:13 0.3 °C -8.9 °C 34361.1 hPa ENE 6 km/h   37 % 0 mm 881.0 W/m2 CLR
15:18 0.4 °C -8.8 °C 34347.6 hPa SE 23.8 km/h 23.8 km/h 37 % 0 mm 875.0 W/m2 CLR
15:23 0.4 °C -8.8 °C 34347.6 hPa Calm     37 % 0 mm 874.0 W/m2 CLR
15:28 0.7 °C -8.8 °C 34347.6 hPa ESE 9 km/h 9 km/h 36 % 0 mm 867.0 W/m2 CLR
15:33 0.8 °C -8.9 °C 34337.4 hPa SE 12.9 km/h 12.9 km/h 35 % 0 mm 856.0 W/m2 CLR
15:38 0.8 °C -9.8 °C 34347.6 hPa ESE 25.9 km/h 25.9 km/h 32 % 0 mm 858.0 W/m2 CLR
15:43 0.7 °C -10.3 °C 34337.4 hPa ESE 17.9 km/h 17.9 km/h 30 % 0 mm 851.0 W/m2 CLR
15:48 0.7 °C -10.3 °C 34337.4 hPa East 23.8 km/h 23.8 km/h 30 % 0 mm 844.0 W/m2 CLR
15:53 0.8 °C -10.6 °C 34337.4 hPa ESE 18.2 km/h 18.2 km/h 29 % 0 mm 838.0 W/m2 CLR
15:58 0.9 °C -10.8 °C 34337.4 hPa ENE 26.9 km/h 26.9 km/h 28 % 0 mm 830.0 W/m2 CLR
16:03 0.9 °C -10.8 °C 34337.4 hPa East 15.6 km/h 15.6 km/h 28 % 0 mm 821.0 W/m2 CLR
16:08 1 °C -10.7 °C 34337.4 hPa SE 26.9 km/h 26.9 km/h 28 % 0 mm 810.0 W/m2 CLR
16:13 1 °C -10.7 °C 34327.3 hPa ESE 26.9 km/h 26.9 km/h 28 % 0 mm 802.0 W/m2 CLR
16:18 1 °C -11 °C 34327.3 hPa East 26.9 km/h 26.9 km/h 27 % 0 mm 791.0 W/m2 CLR
16:23 1 °C -10.7 °C 34327.3 hPa SSE 23.8 km/h 23.8 km/h 28 % 0 mm 784.0 W/m2 CLR
16:28 1 °C -10.7 °C 34327.3 hPa ESE 23.8 km/h 23.8 km/h 28 % 0 mm 772.0 W/m2 CLR
16:33 1.1 °C -10.6 °C 34327.3 hPa SE 15.6 km/h 15.6 km/h 28 % 0 mm 759.0 W/m2 CLR
16:38 1.2 °C -10.8 °C 34327.3 hPa ESE 35.7 km/h 35.7 km/h 27 % 0 mm 751.0 W/m2 CLR
16:43 1.2 °C -10.9 °C 34313.7 hPa East 20.9 km/h 20.9 km/h 27 % 0 mm 742.0 W/m2 CLR
16:48 1.1 °C -11.3 °C 34327.3 hPa ENE 20.9 km/h 20.9 km/h 26 % 0 mm 733.0 W/m2 CLR
16:53 1.1 °C -11.3 °C 34313.7 hPa East 29.8 km/h 29.8 km/h 26 % 0 mm 719.0 W/m2 CLR
17:03 0.9 °C -11.4 °C 34313.7 hPa East 32.8 km/h 32.8 km/h 26 % 0 mm 698.0 W/m2 CLR
17:08 0.9 °C -11.3 °C 34313.7 hPa ESE 20.9 km/h 20.9 km/h 26 % 0 mm 687.0 W/m2 CLR
17:13 0.9 °C -11.4 °C 34313.7 hPa ESE 35.7 km/h 35.7 km/h 26 % 0 mm 671.0 W/m2 CLR
17:18 0.9 °C -11.1 °C 34313.7 hPa ESE 29.8 km/h 29.8 km/h 27 % 0 mm 657.0 W/m2 CLR
17:23 1 °C -11.3 °C 34313.7 hPa ESE 26.9 km/h 26.9 km/h 26 % 0 mm 650.0 W/m2 CLR
17:28 0.9 °C -11.3 °C 34313.7 hPa ESE 25.9 km/h 25.9 km/h 26 % 0 mm 635.0 W/m2 CLR
17:33 0.9 °C -11.1 °C 34303.6 hPa East 11.9 km/h 11.9 km/h 27 % 0 mm 619.0 W/m2 CLR
17:38 1 °C -11 °C 34303.6 hPa East 18.2 km/h 18.2 km/h 27 % 0 mm 608.0 W/m2 CLR
17:43 0.9 °C -11.1 °C 34303.6 hPa ENE 26.9 km/h 26.9 km/h 27 % 0 mm 596.0 W/m2 CLR
17:48 0.9 °C -11.1 °C 34303.6 hPa ESE 17.9 km/h 17.9 km/h 27 % 0 mm 582.0 W/m2 CLR
17:53 1 °C -11.3 °C 34303.6 hPa East 23.3 km/h 23.3 km/h 26 % 0 mm 568.0 W/m2 CLR
17:58 1 °C -11 °C 34303.6 hPa SE 33.6 km/h 33.6 km/h 27 % 0 mm 552.0 W/m2 CLR
18:03 0.9 °C -10.8 °C 34303.6 hPa SE 23.3 km/h 23.3 km/h 28 % 0 mm 538.0 W/m2 CLR
18:04 0.9 °C -10.8 °C 34303.6 hPa SE 26.9 km/h 26.9 km/h 28 % 0 mm 534.0 W/m2 CLR
18:09 0.9 °C -10.8 °C 34303.6 hPa South 29.8 km/h 29.8 km/h 28 % 0 mm 520.0 W/m2 CLR
18:14 0.8 °C -10.8 °C 34303.6 hPa SE 15 km/h 15 km/h 28 % 0 mm 506.0 W/m2 CLR
18:19 0.9 °C -11.1 °C 34293.4 hPa SE 23.8 km/h 23.8 km/h 27 % 0 mm 492.0 W/m2 CLR
18:24 0.9 °C -11.4 °C 34293.4 hPa ESE 38.8 km/h 38.8 km/h 26 % 0 mm 476.0 W/m2 CLR
18:29 0.8 °C -11.5 °C 34293.4 hPa SSE 29.8 km/h 29.8 km/h 26 % 0 mm 462.0 W/m2 CLR
18:34 0.8 °C -11.5 °C 34293.4 hPa East 28.5 km/h 28.5 km/h 26 % 0 mm 450.0 W/m2 CLR
18:39 0.7 °C -11.3 °C 34293.4 hPa East 23.8 km/h 23.8 km/h 27 % 0 mm 432.0 W/m2 CLR
18:44 0.7 °C -11.3 °C 34293.4 hPa SE 23.8 km/h 23.8 km/h 27 % 0 mm 418.0 W/m2 CLR
18:49 0.7 °C -11.2 °C 34293.4 hPa SE 36.2 km/h 36.2 km/h 27 % 0 mm 399.0 W/m2 CLR
18:54 0.7 °C -10.9 °C 34279.9 hPa SE 23.8 km/h 23.8 km/h 28 % 0 mm 383.0 W/m2 CLR
18:55 0.7 °C -10.9 °C 34279.9 hPa ESE 26.9 km/h 26.9 km/h 28 % 0 mm 380.0 W/m2 CLR
19:00 0.7 °C -11.2 °C 34279.9 hPa SE 41.7 km/h 41.7 km/h 27 % 0 mm 367.0 W/m2 CLR
19:05 0.7 °C -10.9 °C 34279.9 hPa East 23.8 km/h 23.8 km/h 28 % 0 mm 350.0 W/m2 CLR
19:10 0.7 °C -10.9 °C 34293.4 hPa ESE 32.8 km/h 32.8 km/h 28 % 0 mm 332.0 W/m2 CLR
19:15 0.7 °C -11 °C 34279.9 hPa ESE 29.8 km/h 29.8 km/h 28 % 0 mm 318.0 W/m2 CLR
19:20 0.6 °C -11.1 °C 34279.9 hPa ESE 29.8 km/h 29.8 km/h 28 % 0 mm 304.0 W/m2 CLR
19:25 0.5 °C -11.1 °C 34279.9 hPa ESE 26.9 km/h 26.9 km/h 28 % 0 mm 290.0 W/m2 CLR
19:30 0.4 °C -11.2 °C 34279.9 hPa East 26.9 km/h 26.9 km/h 28 % 0 mm 271.0 W/m2 CLR
19:32 0.4 °C -11.2 °C 34279.9 hPa SE 29.8 km/h 29.8 km/h 28 % 0 mm 267.0 W/m2 CLR
19:37 0.4 °C -11.2 °C 34279.9 hPa East 29.8 km/h 29.8 km/h 28 % 0 mm 250.0 W/m2 CLR
19:42 0.3 °C -10.9 °C 34279.9 hPa ESE 36.2 km/h 36.2 km/h 29 % 0 mm 237.0 W/m2 CLR
19:47 0.2 °C -11.3 °C 34293.4 hPa SE 29.8 km/h 29.8 km/h 28 % 0 mm 223.0 W/m2 CLR
19:52 0.2 °C -11.4 °C 34293.4 hPa SE 29.8 km/h 29.8 km/h 28 % 0 mm 206.0 W/m2 CLR
19:57 0.1 °C -11.5 °C 34279.9 hPa ESE 29.8 km/h 29.8 km/h 28 % 0 mm 186.0 W/m2 CLR
20:02 0.1 °C -11.5 °C 34279.9 hPa ESE 20.9 km/h 20.9 km/h 28 % 0 mm 171.0 W/m2 CLR
20:07 0.1 °C -11.5 °C 34279.9 hPa ESE 20.9 km/h 20.9 km/h 28 % 0 mm 155.0 W/m2 CLR
20:12 -0.1 °C -11.3 °C 34279.9 hPa SSE 20.9 km/h 20.9 km/h 29 % 0 mm 139.0 W/m2 CLR
20:17 -0.1 °C -11.3 °C 34293.4 hPa SE 17.9 km/h 17.9 km/h 29 % 0 mm 125.0 W/m2 CLR
20:22 -0.2 °C -11.4 °C 34293.4 hPa Calm   1.6 km/h 29 % 0 mm 107.0 W/m2 CLR
20:27 -0.3 °C -11.5 °C 34293.4 hPa ESE 20.9 km/h 20.9 km/h 29 % 0 mm 93.0 W/m2 CLR
20:32 -0.4 °C -11.6 °C 34293.4 hPa ESE 17.9 km/h 17.9 km/h 29 % 0 mm 81.0 W/m2 FEW
20:37 -0.5 °C -11.7 °C 34293.4 hPa SE 17.9 km/h 17.9 km/h 29 % 0 mm 69.0 W/m2 FEW
20:42 -0.6 °C -11.8 °C 34293.4 hPa SE 20.9 km/h 20.9 km/h 29 % 0 mm 47.0 W/m2 SCT
20:47 -0.7 °C -11.6 °C 34293.4 hPa SE 10.3 km/h 10.3 km/h 30 % 0 mm 30.0 W/m2 BKN
20:52 -0.7 °C -11.6 °C 34293.4 hPa SSE 15 km/h 15 km/h 30 % 0 mm 35.0 W/m2 BKN
20:57 -0.8 °C -11.7 °C 34293.4 hPa SSE 15 km/h 15 km/h 30 % 0 mm 28.0 W/m2 BKN
21:02 -0.9 °C -11.7 °C 34293.4 hPa SE 15 km/h 15 km/h 30 % 0 mm 19.0 W/m2 BKN
21:07 -0.9 °C -11.5 °C 34293.4 hPa SSE 17.9 km/h 17.9 km/h 31 % 0 mm 14.0 W/m2 BKN
21:12 -1 °C -11.8 °C 34293.4 hPa South 20.9 km/h 20.9 km/h 30 % 0 mm 12.0 W/m2 BKN
21:17 -1 °C -11.8 °C 34293.4 hPa South 20.9 km/h 20.9 km/h 30 % 0 mm 11.0 W/m2 BKN
21:22 -1.1 °C -11.9 °C 34293.4 hPa SSE 26.9 km/h 26.9 km/h 30 % 0 mm 9.0 W/m2 BKN
21:27 -1.2 °C -12 °C 34293.4 hPa South 29.8 km/h 29.8 km/h 30 % 0 mm 5.0 W/m2 OVC
21:32 -1.3 °C -12.1 °C 34293.4 hPa South 15 km/h 15 km/h 30 % 0 mm 0.0 W/m2 OVC
21:33 -1.3 °C -12.1 °C 34293.4 hPa South 18.2 km/h 18.2 km/h 30 % 0 mm 0.0 W/m2 OVC
21:38 -1.4 °C -12.2 °C 34293.4 hPa South 18.2 km/h 18.2 km/h 30 % 0 mm 0.0 W/m2 OVC
21:43 -1.4 °C -11.9 °C 34293.4 hPa SSE 17.9 km/h 17.9 km/h 31 % 0 mm 0.0 W/m2 OVC
21:48 -1.6 °C -12.1 °C 34303.6 hPa South 23.3 km/h 23.3 km/h 31 % 0 mm 0.0 W/m2 CLR
21:53 -1.6 °C -11.8 °C 34303.6 hPa South 17.9 km/h 17.9 km/h 32 % 0 mm 0.0 W/m2 CLR
21:58 -1.7 °C -11.9 °C 34303.6 hPa SSE 17.9 km/h 17.9 km/h 32 % 0 mm 0.0 W/m2 CLR
22:03 -1.8 °C -11.7 °C 34303.6 hPa Calm     33 % 0 mm 0.0 W/m2 CLR
22:08 -1.8 °C -11.8 °C 34303.6 hPa Calm     33 % 0 mm 0.0 W/m2 CLR
22:13 -1.9 °C -11.6 °C 34303.6 hPa Calm     34 % 0 mm 0.0 W/m2 CLR
22:18 -2.1 °C -11.7 °C 34303.6 hPa Calm     34 % 0 mm 0.0 W/m2 CLR
22:23 -2.1 °C -11.5 °C 34303.6 hPa Calm     35 % 0 mm 0.0 W/m2 CLR
22:28 -2.3 °C -11.6 °C 34303.6 hPa Calm     35 % 0 mm 0.0 W/m2 CLR
22:33 -2.3 °C -11.5 °C 34313.7 hPa Calm     36 % 0 mm 0.0 W/m2 CLR
22:38 -2.4 °C -11.6 °C 34313.7 hPa Calm     36 % 0 mm 0.0 W/m2 CLR
22:43 -2.5 °C -11.6 °C 34313.7 hPa Calm     36 % 0 mm 0.0 W/m2 CLR
22:48 -2.6 °C -11.5 °C 34313.7 hPa Calm     37 % 0 mm 0.0 W/m2 CLR
22:53 -2.7 °C -11.6 °C 34313.7 hPa Calm     37 % 0 mm 0.0 W/m2 CLR
22:58 -2.8 °C -11.6 °C 34313.7 hPa Calm     37 % 0 mm 0.0 W/m2 CLR
23:03 -2.8 °C -11.4 °C 34327.3 hPa Calm     38 % 0 mm 0.0 W/m2 CLR
23:08 -2.9 °C -11.6 °C 34327.3 hPa Calm     38 % 0 mm 0.0 W/m2 CLR
23:13 -3 °C -11.4 °C 34327.3 hPa Calm     39 % 0 mm 0.0 W/m2 CLR
23:18 -3.2 °C -11.3 °C 34327.3 hPa Calm     40 % 0 mm 0.0 W/m2 CLR
23:23 -3.4 °C -11.5 °C 34327.3 hPa Calm     40 % 0 mm 0.0 W/m2 CLR
23:28 -3.5 °C -11.4 °C 34327.3 hPa Calm     41 % 0 mm 0.0 W/m2 CLR
23:33 -3.7 °C -11.3 °C 34327.3 hPa Calm     42 % 0 mm 0.0 W/m2 CLR
23:38 -3.8 °C -11.3 °C 34327.3 hPa Calm     43 % 0 mm 0.0 W/m2 CLR
23:43 -3.9 °C -11 °C 34327.3 hPa Calm     45 % 0 mm 0.0 W/m2 CLR
23:48 -4.1 °C -11.3 °C 34327.3 hPa Calm     44 % 0 mm 0.0 W/m2 CLR
23:53 -4.2 °C -11.4 °C 34327.3 hPa Calm     44 % 0 mm 0.0 W/m2 CLR
23:58 -4.2 °C -11.4 °C 34327.3 hPa Calm     44 % 0 mm 0.0 W/m2 CLR
Lo Temps de Massalio
Compliments of Weather Underground - 1.25 mb